Terminal Aerodrome Forecast
Issued by NWS

Current Version | Previous Version | Text Only | Print | Product List | Glossary On
Versions: 1 2 3 4 5 6 7 8 9 10 11 12 13 14 15 16
057
FTUS46 KPDT 240520
TAFYKM
TAF
KYKM 240520Z 2406/2506 28006KT P6SM FEW080 BKN200
     FM241700 VRB04KT P6SM FEW080
     FM250100 33008KT P6SM FEW080=

USA.gov is the U.S. government's official web portal to all federal, state and local government web resources and services.